Time;durP1;ratioP1;P1;durP2;ratioP2;P2;SDS_P1;SDS_P2;PMS_P1;PMS_P2;Temp;Humidity;BMP_temperature;BMP_pressure;BME280_temperature;BME280_humidity;BME280_pressure;Samples;Min_cycle;Max_cycle;Signal;HPM_P1;HPM_P2
2023/08/25 00:00:09;;;;;;;4.60;3.30;;;;;;;-145.69;nan;51745.38;5115062;28;20548;-82
2023/08/25 00:02:35;;;;;;;7.38;3.20;;;;;;;-145.69;nan;51783.00;5114696;28;20658;-81
2023/08/25 00:05:03;;;;;;;5.07;3.60;;;;;;;-145.69;nan;51769.13;5114791;28;20663;-81
2023/08/25 00:07:30;;;;;;;7.55;3.60;;;;;;;-145.69;nan;51751.31;5114646;28;20602;-81
2023/08/25 00:09:58;;;;;;;6.28;3.63;;;;;;;-145.69;nan;51749.31;5094637;28;20198;-81
2023/08/25 00:12:25;;;;;;;14.57;3.45;;;;;;;-145.69;nan;51767.16;5104949;28;20197;-83
2023/08/25 00:14:51;;;;;;;5.38;3.05;;;;;;;-145.69;nan;51759.22;5102753;28;20260;-82
2023/08/25 00:17:18;;;;;;;7.07;3.65;;;;;;;-145.69;nan;51765.16;5114995;28;20198;-81
2023/08/25 00:19:44;;;;;;;8.18;3.45;;;;;;;-145.69;nan;51747.34;5114292;28;20197;-81
2023/08/25 00:22:12;;;;;;;5.40;3.45;;;;;;;-145.69;nan;51755.25;5114805;28;20201;-82
2023/08/25 00:24:38;;;;;;;7.13;3.38;;;;;;;-145.69;nan;51755.25;5114787;28;20197;-82
2023/08/25 00:27:06;;;;;;;6.60;3.47;;;;;;;-145.69;nan;51723.59;5114719;28;20278;-83
2023/08/25 00:29:32;;;;;;;8.10;3.35;;;;;;;-145.69;nan;51743.38;5114209;28;20208;-82
2023/08/25 00:31:59;;;;;;;7.00;3.25;;;;;;;-145.69;nan;51779.03;5114439;28;20201;-81
2023/08/25 00:34:25;;;;;;;10.48;3.38;;;;;;;-145.69;nan;51747.34;5114472;28;20229;-82
2023/08/25 00:36:52;;;;;;;4.85;3.15;;;;;;;-145.69;nan;51765.16;5114472;28;20328;-82
2023/08/25 00:39:18;;;;;;;6.70;3.40;;;;;;;-145.69;nan;51745.38;5114609;28;20216;-83
2023/08/25 00:41:45;;;;;;;8.48;3.42;;;;;;;-145.69;nan;51769.13;5114401;28;20194;-82
2023/08/25 00:44:13;;;;;;;5.45;3.72;;;;;;;-145.69;nan;51751.31;5113703;28;20201;-81
2023/08/25 00:46:39;;;;;;;7.88;4.00;;;;;;;-145.69;nan;51773.09;5113473;28;20450;-81
2023/08/25 00:49:06;;;;;;;6.38;4.15;;;;;;;-145.69;nan;51771.09;5113911;28;20213;-81
2023/08/25 00:51:33;;;;;;;8.07;3.58;;;;;;;-145.69;nan;51771.09;5114220;28;20559;-81
2023/08/25 00:53:59;;;;;;;4.75;3.25;;;;;;;-145.69;nan;51771.09;5113833;28;20235;-82
2023/08/25 00:56:26;;;;;;;7.88;4.05;;;;;;;-145.69;nan;51761.22;5113819;28;20204;-81
2023/08/25 00:58:54;;;;;;;6.93;4.07;;;;;;;-145.69;nan;51721.59;5114138;28;20648;-81
2023/08/25 01:01:23;;;;;;;6.68;4.28;;;;;;;-145.69;nan;51739.44;5114270;28;20201;-81
2023/08/25 01:03:49;;;;;;;6.60;3.28;;;;;;;-145.69;nan;51761.22;5113785;28;20238;-82
2023/08/25 01:06:16;;;;;;;19.95;4.03;;;;;;;-145.69;nan;51751.31;5113987;28;20212;-82
2023/08/25 01:08:43;;;;;;;6.45;3.70;;;;;;;-145.69;nan;51767.16;5113185;28;20193;-83
2023/08/25 01:11:21;;;;;;;6.57;4.07;;;;;;;-145.69;nan;51769.13;5113761;28;20604;-83
2023/08/25 01:13:58;;;;;;;7.10;3.50;;;;;;;-145.69;nan;51759.22;5113847;28;20225;-82
2023/08/25 01:16:34;;;;;;;9.68;3.78;;;;;;;-145.69;nan;51745.38;5113868;28;20199;-82
2023/08/25 01:19:03;;;;;;;7.97;3.35;;;;;;;-145.69;nan;51786.94;5113445;28;20209;-82
2023/08/25 01:21:30;;;;;;;6.10;3.00;;;;;;;-145.69;nan;51775.06;5113379;28;20224;-82
2023/08/25 01:24:06;;;;;;;7.63;3.38;;;;;;;-145.69;nan;51783.00;5113447;28;20556;-82
2023/08/25 01:26:34;;;;;;;6.38;3.63;;;;;;;-145.69;nan;51779.03;5113629;28;20660;-82
2023/08/25 01:29:00;;;;;;;5.45;3.45;;;;;;;-145.69;nan;51755.25;5113260;28;20201;-83
2023/08/25 01:31:27;;;;;;;6.30;3.65;;;;;;;-145.69;nan;51767.16;5113309;28;20196;-82
2023/08/25 01:33:55;;;;;;;9.88;3.50;;;;;;;-145.69;nan;51777.03;5112927;28;20202;-82
2023/08/25 01:36:26;;;;;;;6.32;3.40;;;;;;;-145.69;nan;51743.38;5113398;28;20212;-82
2023/08/25 01:38:56;;;;;;;5.90;3.40;;;;;;;-145.69;nan;51761.22;5113038;28;20197;-82
2023/08/25 01:41:30;;;;;;;10.48;3.17;;;;;;;-145.69;nan;51733.50;5113312;28;20333;-82
2023/08/25 01:44:02;;;;;;;5.55;3.55;;;;;;;-145.69;nan;51751.31;5113388;28;20694;-82
2023/08/25 01:46:30;;;;;;;9.88;4.15;;;;;;;-145.69;nan;51763.19;5116681;28;20663;-82
2023/08/25 01:48:58;;;;;;;9.80;4.05;;;;;;;-145.69;nan;51771.09;5133520;28;20698;-82
2023/08/25 01:51:26;;;;;;;10.10;4.20;;;;;;;-145.69;nan;51777.03;5133881;28;20196;-83
2023/08/25 01:53:54;;;;;;;8.50;3.47;;;;;;;-145.69;nan;51775.06;5114061;28;20197;-82
2023/08/25 01:56:20;;;;;;;5.45;4.20;;;;;;;-145.69;nan;51759.22;5113149;28;20243;-82
2023/08/25 01:58:47;;;;;;;7.30;3.70;;;;;;;-145.69;nan;51784.97;5094584;28;20228;-82
2023/08/25 02:01:14;;;;;;;14.52;4.13;;;;;;;-145.69;nan;51755.25;5117201;28;20200;-82
2023/08/25 02:03:41;;;;;;;9.13;3.88;;;;;;;-145.69;nan;51773.09;5132856;27;20197;-82
2023/08/25 02:06:09;;;;;;;6.05;3.80;;;;;;;-145.69;nan;51747.34;5117354;28;20212;-81
2023/08/25 02:08:35;;;;;;;8.32;3.58;;;;;;;-145.69;nan;51763.19;5100828;28;20595;-81
2023/08/25 02:11:02;;;;;;;11.48;3.60;;;;;;;-145.69;nan;51769.13;5096101;28;20198;-82
2023/08/25 02:13:28;;;;;;;5.50;3.80;;;;;;;-145.69;nan;51761.22;5115024;28;20225;-82
2023/08/25 02:15:55;;;;;;;9.55;3.72;;;;;;;-145.69;nan;51759.22;5117094;28;20225;-82
2023/08/25 02:18:23;;;;;;;8.05;3.75;;;;;;;-145.69;nan;51739.44;5102787;28;20190;-81
2023/08/25 02:20:49;;;;;;;10.20;3.90;;;;;;;-145.69;nan;51757.25;5096953;28;20202;-82
2023/08/25 02:23:16;;;;;;;9.15;3.33;;;;;;;-145.69;nan;51798.81;5096697;28;20292;-82
2023/08/25 02:25:42;;;;;;;6.88;3.15;;;;;;;-145.69;nan;51747.34;5112973;28;20204;-82
2023/08/25 02:28:09;;;;;;;7.18;3.92;;;;;;;-145.69;nan;51761.22;5116296;28;20204;-82
2023/08/25 02:30:35;;;;;;;7.20;3.67;;;;;;;-145.69;nan;51771.09;5117057;28;20205;-81
2023/08/25 02:33:02;;;;;;;4.90;3.25;;;;;;;-145.69;nan;51761.22;5117041;28;20208;-83
2023/08/25 02:35:30;;;;;;;7.20;3.85;;;;;;;-145.69;nan;51773.09;5116668;28;20229;-81
2023/08/25 02:37:58;;;;;;;6.80;3.25;;;;;;;-145.69;nan;51743.38;5116308;28;20194;-81
2023/08/25 02:40:25;;;;;;;8.40;3.78;;;;;;;-145.69;nan;51733.50;5116295;28;20212;-81
2023/08/25 02:42:52;;;;;;;7.50;3.38;;;;;;;-145.69;nan;51769.13;5116981;28;20208;-82
2023/08/25 02:45:19;;;;;;;5.78;3.40;;;;;;;-145.69;nan;51765.16;5116517;28;20193;-80
2023/08/25 02:47:45;;;;;;;7.63;3.60;;;;;;;-145.69;nan;51763.19;5116557;28;20202;-82
2023/08/25 02:50:13;;;;;;;8.38;3.50;;;;;;;-145.69;nan;51767.16;5115868;28;20197;-82
2023/08/25 02:52:41;;;;;;;8.25;3.40;;;;;;;-145.69;nan;51771.09;5115324;28;20197;-82
2023/08/25 02:55:07;;;;;;;9.13;4.22;;;;;;;-145.69;nan;51767.16;5115992;28;20213;-82
2023/08/25 02:57:34;;;;;;;9.90;4.18;;;;;;;-145.69;nan;51755.25;5115813;28;20427;-81
2023/08/25 03:00:00;;;;;;;11.40;3.70;;;;;;;-145.69;nan;51749.31;5115982;28;20194;-80
2023/08/25 03:02:27;;;;;;;6.60;3.30;;;;;;;-145.69;nan;51739.44;5116395;28;20216;-81
2023/08/25 03:04:53;;;;;;;6.35;3.55;;;;;;;-145.69;nan;51790.91;5116259;28;20198;-81
2023/08/25 03:07:20;;;;;;;9.07;3.58;;;;;;;-145.69;nan;51751.31;5115927;28;20201;-81
2023/08/25 03:09:48;;;;;;;8.18;2.90;;;;;;;-145.69;nan;51765.16;5115812;28;20194;-82
2023/08/25 03:12:14;;;;;;;12.35;3.58;;;;;;;-145.69;nan;51751.31;5115765;28;20197;-81
2023/08/25 03:14:41;;;;;;;9.15;3.60;;;;;;;-145.69;nan;51759.22;5115470;28;20576;-81
2023/08/25 03:17:07;;;;;;;9.63;3.17;;;;;;;-145.69;nan;51771.09;5115677;28;20687;-82
2023/08/25 03:19:33;;;;;;;11.38;3.45;;;;;;;-145.69;nan;51727.53;5115243;28;20201;-80
2023/08/25 03:22:01;;;;;;;7.18;4.05;;;;;;;-145.69;nan;51767.16;5116172;28;20231;-82
2023/08/25 03:24:27;;;;;;;9.00;3.58;;;;;;;-145.69;nan;51735.47;5115647;28;20660;-82
2023/08/25 03:26:58;;;;;;;9.57;4.03;;;;;;;-145.69;nan;51725.56;5115701;28;20197;-81
2023/08/25 03:29:25;;;;;;;6.55;3.53;;;;;;;-145.69;nan;51747.34;5115738;28;20201;-82
2023/08/25 03:31:52;;;;;;;9.27;4.03;;;;;;;-145.69;nan;51723.59;5115513;28;20287;-82
2023/08/25 03:34:19;;;;;;;7.78;3.67;;;;;;;-145.69;nan;51719.63;5115690;28;20198;-82
2023/08/25 03:36:46;;;;;;;5.78;3.30;;;;;;;-145.69;nan;51719.63;5115544;28;20316;-81
2023/08/25 03:39:13;;;;;;;9.45;3.83;;;;;;;-145.69;nan;51735.47;5115778;28;20212;-80
2023/08/25 03:41:39;;;;;;;6.35;3.08;;;;;;;-145.69;nan;51743.38;5115300;28;20196;-83
2023/08/25 03:44:07;;;;;;;7.72;3.17;;;;;;;-145.69;nan;51723.59;5131253;27;20648;-82
2023/08/25 03:46:33;;;;;;;4.75;3.30;;;;;;;-145.69;nan;51723.59;5136152;27;20203;-81
2023/08/25 03:49:00;;;;;;;9.25;3.53;;;;;;;-145.69;nan;51719.63;5120718;27;20194;-81
2023/08/25 03:51:27;;;;;;;6.53;3.50;;;;;;;-145.69;nan;51731.50;5115110;28;20204;-82
2023/08/25 03:53:53;;;;;;;10.05;3.13;;;;;;;-145.69;nan;51717.66;5115199;28;20194;-81
2023/08/25 03:56:20;;;;;;;7.70;4.00;;;;;;;-145.69;nan;51703.78;5115178;28;20221;-83
2023/08/25 03:58:47;;;;;;;5.93;3.50;;;;;;;-145.69;nan;51723.59;5115187;28;20202;-79
2023/08/25 04:01:14;;;;;;;5.45;3.40;;;;;;;-145.69;nan;51705.75;5115097;28;20201;-81
2023/08/25 04:03:41;;;;;;;5.93;3.50;;;;;;;-145.69;nan;51751.31;5115127;28;20201;-80
2023/08/25 04:06:07;;;;;;;9.38;3.35;;;;;;;-145.69;nan;51765.16;5114501;28;20205;-80
2023/08/25 04:08:34;;;;;;;8.50;3.60;;;;;;;-145.69;nan;51711.72;5114691;28;20209;-80
2023/08/25 04:11:00;;;;;;;8.27;3.25;;;;;;;-145.69;nan;51703.78;5110823;28;20663;-81
2023/08/25 04:13:27;;;;;;;5.35;3.30;;;;;;;-145.69;nan;51711.72;5094764;28;20695;-81
2023/08/25 04:15:57;;;;;;;8.93;3.60;;;;;;;-145.69;nan;51731.50;5094397;28;20233;-80
2023/08/25 04:18:26;;;;;;;5.72;3.10;;;;;;;-145.69;nan;51715.66;5103329;28;20197;-80
2023/08/25 04:20:52;;;;;;;6.57;3.38;;;;;;;-145.69;nan;51727.53;5114596;28;20551;-80
2023/08/25 04:23:19;;;;;;;8.23;3.63;;;;;;;-145.69;nan;51733.50;5114229;28;20200;-80
2023/08/25 04:25:45;;;;;;;8.48;3.85;;;;;;;-145.69;nan;51753.28;5114471;28;20205;-80
2023/08/25 04:28:12;;;;;;;10.15;4.50;;;;;;;-145.69;nan;51767.16;5114669;28;20201;-80
2023/08/25 04:30:38;;;;;;;5.80;3.53;;;;;;;-145.69;nan;51719.63;5114421;28;20193;-80
2023/08/25 04:33:05;;;;;;;5.53;3.60;;;;;;;-145.69;nan;51733.50;5114170;28;20197;-80
2023/08/25 04:35:35;;;;;;;6.45;3.50;;;;;;;-145.69;nan;51723.59;5114394;28;20715;-80
2023/08/25 04:38:01;;;;;;;6.30;3.72;;;;;;;-145.69;nan;51729.53;5114400;28;20200;-79
2023/08/25 04:40:28;;;;;;;8.48;4.00;;;;;;;-145.69;nan;51741.41;5114349;28;20197;-80
2023/08/25 04:42:54;;;;;;;6.97;3.42;;;;;;;-145.69;nan;51727.53;5113934;28;20681;-80
2023/08/25 04:45:21;;;;;;;11.68;3.65;;;;;;;-145.69;nan;51751.31;5114090;28;20205;-80
2023/08/25 04:47:47;;;;;;;9.43;3.47;;;;;;;-145.69;nan;51723.59;5113961;28;20227;-80
2023/08/25 04:50:14;;;;;;;8.60;3.80;;;;;;;-145.69;nan;51759.22;5114456;28;20197;-81
2023/08/25 04:52:41;;;;;;;6.95;4.20;;;;;;;-145.69;nan;51747.34;5114112;28;20208;-82
2023/08/25 04:55:10;;;;;;;8.43;3.80;;;;;;;-145.69;nan;51721.59;5113979;28;20204;-79
2023/08/25 04:57:36;;;;;;;6.75;3.85;;;;;;;-145.69;nan;51753.28;5113207;28;20233;-80
2023/08/25 05:00:05;;;;;;;7.40;3.75;;;;;;;-145.69;nan;51739.44;5113895;28;20339;-80
2023/08/25 05:02:32;;;;;;;10.18;4.30;;;;;;;-145.69;nan;51747.34;5114176;28;20292;-81
2023/08/25 05:04:58;;;;;;;8.00;4.97;;;;;;;-145.69;nan;51715.66;5113433;28;20200;-82
2023/08/25 05:07:25;;;;;;;6.90;3.90;;;;;;;-145.69;nan;51739.44;5113775;28;20278;-82
2023/08/25 05:09:53;;;;;;;8.75;3.72;;;;;;;-145.69;nan;51751.31;5114006;28;20300;-80
2023/08/25 05:12:20;;;;;;;6.72;3.75;;;;;;;-145.69;nan;51729.53;5113799;28;20208;-81
2023/08/25 05:14:46;;;;;;;7.38;3.88;;;;;;;-145.69;nan;51725.56;5112911;28;20561;-80
2023/08/25 05:17:13;;;;;;;6.95;4.13;;;;;;;-145.69;nan;51739.44;5113504;28;20720;-81
2023/08/25 05:19:39;;;;;;;9.82;3.67;;;;;;;-145.69;nan;51729.53;5113673;28;20223;-81
2023/08/25 05:22:06;;;;;;;9.27;3.85;;;;;;;-145.69;nan;51729.53;5113614;28;20200;-81
2023/08/25 05:24:32;;;;;;;9.10;4.20;;;;;;;-145.69;nan;51721.59;5113507;28;20208;-82
2023/08/25 05:27:00;;;;;;;7.82;4.03;;;;;;;-145.69;nan;51727.53;5113480;28;20201;-82
2023/08/25 05:29:28;;;;;;;12.50;3.95;;;;;;;-145.69;nan;51723.59;5113225;28;20203;-80
2023/08/25 05:31:55;;;;;;;5.15;3.08;;;;;;;-145.69;nan;51719.63;5113737;28;20265;-80
2023/08/25 05:34:21;;;;;;;10.88;4.18;;;;;;;-145.69;nan;51737.44;5112746;28;20197;-81
2023/08/25 05:36:47;;;;;;;10.40;4.65;;;;;;;-145.69;nan;51729.53;5122225;27;20216;-81
2023/08/25 05:39:14;;;;;;;9.07;3.97;;;;;;;-145.69;nan;51709.72;5113871;28;20205;-81
2023/08/25 05:41:40;;;;;;;8.05;3.83;;;;;;;-145.69;nan;51719.63;5113392;28;20193;-81
2023/08/25 05:44:08;;;;;;;8.32;3.85;;;;;;;-145.69;nan;51707.75;5112745;28;20204;-81
2023/08/25 05:46:35;;;;;;;7.07;3.20;;;;;;;-145.69;nan;51735.47;5113078;28;20221;-83
2023/08/25 05:49:01;;;;;;;5.65;3.95;;;;;;;-145.69;nan;51699.81;5113189;28;20198;-82
2023/08/25 05:51:28;;;;;;;6.35;3.97;;;;;;;-145.69;nan;51703.78;5113437;28;20204;-81
2023/08/25 05:53:55;;;;;;;9.18;3.60;;;;;;;-145.69;nan;51711.72;5113160;28;20359;-81
2023/08/25 05:56:21;;;;;;;4.55;3.17;;;;;;;-145.69;nan;51699.81;5113080;28;20233;-84
2023/08/25 05:58:48;;;;;;;5.85;3.05;;;;;;;-145.69;nan;51689.94;5113322;28;20194;-82
2023/08/25 06:01:16;;;;;;;7.40;3.15;;;;;;;-145.69;nan;51648.34;5113049;28;20201;-82
2023/08/25 06:03:42;;;;;;;6.30;3.40;;;;;;;-145.69;nan;51683.97;5112973;28;20655;-81
2023/08/25 06:06:08;;;;;;;7.13;2.45;;;;;;;-145.69;nan;51685.97;5113030;28;20201;-83
2023/08/25 06:08:36;;;;;;;9.48;3.03;;;;;;;-145.69;nan;51683.97;5112703;28;20198;-82
2023/08/25 06:11:03;;;;;;;7.30;3.10;;;;;;;-145.69;nan;51672.09;5113017;28;20533;-80
2023/08/25 06:13:30;;;;;;;6.43;2.55;;;;;;;-145.69;nan;51670.13;5112561;28;20239;-81
2023/08/25 06:15:56;;;;;;;4.85;2.05;;;;;;;-145.69;nan;51662.22;5112087;28;20220;-82
2023/08/25 06:18:24;;;;;;;6.20;2.40;;;;;;;-145.69;nan;51648.34;5109796;28;20204;-82
2023/08/25 06:20:51;;;;;;;5.78;2.50;;;;;;;-145.69;nan;51683.97;5094690;28;20579;-81
2023/08/25 06:23:18;;;;;;;4.15;2.70;;;;;;;-145.69;nan;51644.38;5112904;28;20212;-82
2023/08/25 06:25:45;;;;;;;7.32;2.03;;;;;;;-145.69;nan;51660.22;5112950;28;20223;-80
2023/08/25 06:28:12;;;;;;;6.28;2.47;;;;;;;-145.69;nan;51668.16;5112984;28;20672;-80
2023/08/25 06:30:41;;;;;;;6.30;2.50;;;;;;;-145.69;nan;51687.94;5112874;28;20208;-81
2023/08/25 06:33:07;;;;;;;6.95;3.40;;;;;;;-145.69;nan;51711.72;5112866;28;20228;-82
2023/08/25 06:35:35;;;;;;;7.88;3.90;;;;;;;-145.69;nan;51668.16;5112048;28;20435;-80
2023/08/25 06:38:03;;;;;;;7.68;3.83;;;;;;;-145.69;nan;51697.84;5112777;28;20208;-80
2023/08/25 06:40:30;;;;;;;5.93;3.53;;;;;;;-145.69;nan;51721.59;5112606;28;20197;-80
2023/08/25 06:42:56;;;;;;;8.15;4.10;;;;;;;-145.69;nan;51689.94;5112942;28;20228;-80
2023/08/25 06:45:23;;;;;;;11.65;3.75;;;;;;;-145.69;nan;51672.09;5113860;28;20193;-81
2023/08/25 06:47:50;;;;;;;7.40;3.53;;;;;;;-145.69;nan;51683.97;5116484;28;20194;-79
2023/08/25 06:50:17;;;;;;;8.45;3.42;;;;;;;-145.69;nan;51670.13;5116602;28;20288;-80
2023/08/25 06:52:45;;;;;;;10.18;3.40;;;;;;;-145.69;nan;51646.38;5116271;28;20224;-80
2023/08/25 06:55:11;;;;;;;7.10;3.35;;;;;;;-145.69;nan;51652.31;5116623;28;20254;-81
2023/08/25 06:57:38;;;;;;;7.82;3.53;;;;;;;-145.69;nan;51672.09;5115799;28;20221;-80
2023/08/25 07:00:06;;;;;;;7.25;3.58;;;;;;;-145.69;nan;51697.84;5116084;28;20198;-80
2023/08/25 07:02:32;;;;;;;7.80;3.13;;;;;;;-145.69;nan;51697.84;5116218;28;20208;-81
2023/08/25 07:04:59;;;;;;;14.13;3.80;;;;;;;-145.69;nan;51703.78;5116165;28;20205;-81
2023/08/25 07:07:26;;;;;;;8.23;3.10;;;;;;;-145.69;nan;51691.91;5097483;28;20205;-80
2023/08/25 07:09:54;;;;;;;5.13;3.03;;;;;;;-145.69;nan;51717.66;5116330;28;20251;-79
2023/08/25 07:12:20;;;;;;;5.15;2.97;;;;;;;-145.69;nan;51721.59;5115871;28;20660;-80
2023/08/25 07:14:47;;;;;;;4.90;3.00;;;;;;;-145.69;nan;51705.75;5115607;28;20228;-80
2023/08/25 07:17:14;;;;;;;5.55;2.97;;;;;;;-145.69;nan;51713.69;5115828;28;20307;-80
2023/08/25 07:19:40;;;;;;;10.32;3.20;;;;;;;-145.69;nan;51727.53;5115569;28;20197;-79
2023/08/25 07:22:08;;;;;;;8.80;3.60;;;;;;;-145.69;nan;51723.59;5115845;28;20197;-79
2023/08/25 07:24:35;;;;;;;5.05;3.28;;;;;;;-145.69;nan;51707.75;5115416;28;20602;-80
2023/08/25 07:27:02;;;;;;;7.78;3.08;;;;;;;-145.69;nan;51687.94;5115815;28;20202;-80
2023/08/25 07:29:29;;;;;;;5.40;3.35;;;;;;;-145.69;nan;51717.66;5115074;28;20201;-80
2023/08/25 07:31:56;;;;;;;5.18;3.10;;;;;;;-145.69;nan;51713.69;5115782;28;20567;-81
2023/08/25 07:34:23;;;;;;;5.57;3.10;;;;;;;-145.69;nan;51691.91;5115303;28;20247;-81
2023/08/25 07:36:49;;;;;;;5.32;3.13;;;;;;;-145.69;nan;51707.75;5115077;28;20691;-81
2023/08/25 07:39:17;;;;;;;7.60;3.08;;;;;;;-145.69;nan;51723.59;5116581;27;20291;-80
2023/08/25 07:41:44;;;;;;;5.32;2.72;;;;;;;-145.69;nan;51737.44;5114947;28;20193;-81
2023/08/25 07:44:12;;;;;;;6.03;3.10;;;;;;;-145.69;nan;51743.38;5115237;28;20193;-80
2023/08/25 07:46:39;;;;;;;9.13;3.75;;;;;;;-145.69;nan;51707.75;5115034;28;20193;-81
2023/08/25 07:49:06;;;;;;;6.50;3.38;;;;;;;-145.69;nan;51703.78;5115360;28;20560;-80
2023/08/25 07:51:33;;;;;;;8.20;4.10;;;;;;;-145.69;nan;51725.56;5115554;28;20189;-81
2023/08/25 07:53:59;;;;;;;13.77;3.50;;;;;;;-145.69;nan;51765.16;5115345;28;20204;-82
2023/08/25 07:56:26;;;;;;;51.67;5.80;;;;;;;-145.69;nan;51777.03;5115000;28;20225;-79
2023/08/25 07:58:54;;;;;;;65.90;5.55;;;;;;;-145.69;nan;51814.66;5115600;28;20205;-83
2023/08/25 08:01:22;;;;;;;11.48;4.45;;;;;;;-145.69;nan;51775.06;5115650;28;20668;-81
2023/08/25 08:03:50;;;;;;;7.93;4.47;;;;;;;-145.69;nan;51751.31;5114825;28;20227;-81
2023/08/25 08:06:17;;;;;;;9.93;4.93;;;;;;;-145.69;nan;51771.09;5115319;28;20233;-80
2023/08/25 08:08:44;;;;;;;10.65;4.50;;;;;;;-145.69;nan;51763.19;5114648;28;20560;-82
2023/08/25 08:11:10;;;;;;;11.50;5.00;;;;;;;-145.69;nan;51751.31;5115090;28;20201;-79
2023/08/25 08:13:39;;;;;;;8.25;5.18;;;;;;;-145.69;nan;51765.16;5114353;28;20221;-81
2023/08/25 08:16:05;;;;;;;11.30;5.38;;;;;;;-145.69;nan;51769.13;5101316;28;20566;-81
2023/08/25 08:18:33;;;;;;;7.50;5.13;;;;;;;-145.69;nan;51755.25;5094394;28;20202;-81
2023/08/25 08:21:03;;;;;;;11.88;5.63;;;;;;;-145.69;nan;51747.34;5094507;28;20210;-81
2023/08/25 08:23:29;;;;;;;14.13;6.35;;;;;;;-145.69;nan;51733.50;5113353;28;20272;-81
2023/08/25 08:25:56;;;;;;;11.75;6.15;;;;;;;-145.69;nan;51771.09;5113944;28;20200;-80
2023/08/25 08:28:25;;;;;;;9.55;5.28;;;;;;;-145.69;nan;51741.41;5114281;28;20197;-80
2023/08/25 08:30:55;;;;;;;10.18;5.22;;;;;;;-145.69;nan;51731.50;5114280;28;20205;-81
2023/08/25 08:33:21;;;;;;;10.68;5.22;;;;;;;-145.69;nan;51735.47;5114525;28;20254;-80
2023/08/25 08:35:49;;;;;;;6.70;4.72;;;;;;;-145.69;nan;51703.78;5114198;28;20197;-80
2023/08/25 08:38:16;;;;;;;10.85;4.93;;;;;;;-145.69;nan;51711.72;5114255;28;20256;-80
2023/08/25 08:40:42;;;;;;;6.32;4.50;;;;;;;-145.69;nan;51719.63;5113697;28;20292;-80
2023/08/25 08:43:14;;;;;;;8.60;4.60;;;;;;;-145.69;nan;51693.88;5114398;28;20622;-80
2023/08/25 08:45:43;;;;;;;7.95;4.90;;;;;;;-145.69;nan;51691.91;5114294;28;20449;-81
2023/08/25 08:48:11;;;;;;;9.85;4.28;;;;;;;-145.69;nan;51707.75;5114399;28;20205;-81
2023/08/25 08:50:37;;;;;;;6.30;4.20;;;;;;;-145.69;nan;51699.81;5114030;28;20193;-80
2023/08/25 08:53:10;;;;;;;5.97;3.88;;;;;;;-145.69;nan;51670.13;5114585;28;20202;-82
2023/08/25 08:55:38;;;;;;;4.97;3.50;;;;;;;-145.69;nan;51707.75;5114113;28;20535;-81
2023/08/25 08:58:05;;;;;;;4.55;3.50;;;;;;;-145.69;nan;51707.75;5114099;28;20233;-81
2023/08/25 09:00:32;;;;;;;7.28;3.40;;;;;;;-145.69;nan;51642.41;5113816;28;20190;-82
2023/08/25 09:03:01;;;;;;;6.38;3.13;;;;;;;-145.69;nan;51680.03;5114036;28;20300;-81
2023/08/25 09:05:30;;;;;;;6.07;2.97;;;;;;;-145.69;nan;51638.44;5113983;28;20197;-81
2023/08/25 09:08:00;;;;;;;6.68;2.70;;;;;;;-145.69;nan;51656.25;5095459;28;20202;-82
2023/08/25 09:10:29;;;;;;;4.72;2.95;;;;;;;-145.69;nan;51683.97;5113525;28;20197;-81
2023/08/25 09:12:58;;;;;;;4.50;2.45;;;;;;;-145.69;nan;51652.31;5095578;28;20250;-81
2023/08/25 09:15:26;;;;;;;3.40;2.00;;;;;;;-145.69;nan;51654.28;5094948;28;20225;-81
2023/08/25 09:18:00;;;;;;;2.97;2.65;;;;;;;-145.69;nan;51664.19;5113314;28;20228;-81
2023/08/25 09:20:27;;;;;;;4.80;2.70;;;;;;;-145.69;nan;51676.06;5112659;28;20226;-81
2023/08/25 09:22:56;;;;;;;3.00;2.20;;;;;;;-145.69;nan;51632.50;5111812;28;20197;-80
2023/08/25 09:25:23;;;;;;;3.15;2.35;;;;;;;-145.69;nan;51648.34;5113623;28;20570;-81
2023/08/25 09:27:56;;;;;;;2.72;2.20;;;;;;;-145.69;nan;51614.69;5113653;28;20197;-81
2023/08/25 09:30:33;;;;;;;4.50;2.20;;;;;;;-145.69;nan;51626.56;5113443;28;20208;-80
2023/08/25 09:33:04;;;;;;;3.13;2.20;;;;;;;-145.69;nan;51618.66;5111136;28;20203;-81
2023/08/25 09:35:32;;;;;;;5.05;2.47;;;;;;;-145.69;nan;51628.53;5112805;28;20193;-81
2023/08/25 09:37:59;;;;;;;2.10;1.75;;;;;;;-145.69;nan;51600.81;5109914;28;20802;-83
2023/08/25 09:40:26;;;;;;;2.47;1.77;;;;;;;-145.69;nan;51612.72;5111384;27;20521;-82
2023/08/25 09:42:59;;;;;;;2.17;1.55;;;;;;;-145.69;nan;51618.66;5101464;28;20198;-81
2023/08/25 09:45:33;;;;;;;3.47;2.13;;;;;;;-145.69;nan;51600.81;5092676;28;20202;-81
2023/08/25 09:48:07;;;;;;;2.53;1.83;;;;;;;-145.69;nan;51632.50;5109620;28;20639;-82
2023/08/25 09:50:38;;;;;;;3.65;2.10;;;;;;;-145.69;nan;51616.66;5101513;28;20301;-83
2023/08/25 09:53:09;;;;;;;2.92;2.15;;;;;;;-145.69;nan;51630.53;5092299;28;20257;-82
2023/08/25 09:55:37;;;;;;;5.13;2.22;;;;;;;-145.69;nan;51606.75;5095981;28;20197;-82
2023/08/25 09:58:08;;;;;;;3.33;2.30;;;;;;;-145.69;nan;51604.78;5112730;28;20232;-82
2023/08/25 10:00:36;;;;;;;3.53;2.17;;;;;;;-145.69;nan;51606.75;5112651;28;20197;-81
2023/08/25 10:03:04;;;;;;;2.15;1.90;;;;;;;-145.69;nan;51608.75;5113076;28;20212;-81
2023/08/25 10:05:32;;;;;;;2.47;1.90;;;;;;;-145.69;nan;51579.03;5112864;28;20195;-82
2023/08/25 10:08:00;;;;;;;3.97;2.20;;;;;;;-145.69;nan;51557.25;5113025;28;20255;-80
2023/08/25 10:10:31;;;;;;;5.88;2.30;;;;;;;-145.69;nan;51604.78;5113019;28;20198;-81
2023/08/25 10:12:58;;;;;;;2.67;1.60;;;;;;;-145.69;nan;51563.22;5113141;28;20196;-81
2023/08/25 10:15:30;;;;;;;2.63;1.77;;;;;;;-145.69;nan;51573.09;5110917;28;20225;-81
2023/08/25 10:18:00;;;;;;;5.25;1.95;;;;;;;-145.69;nan;51579.03;5111437;28;21430;-81
2023/08/25 10:20:27;;;;;;;3.42;1.75;;;;;;;-145.69;nan;51575.09;5114226;28;20200;-82
2023/08/25 10:22:56;;;;;;;2.70;1.92;;;;;;;-145.69;nan;51583.00;5116992;28;20202;-82
2023/08/25 10:25:23;;;;;;;3.10;1.83;;;;;;;-145.69;nan;51545.38;5116946;28;20197;-82
2023/08/25 10:27:50;;;;;;;3.22;1.50;;;;;;;-145.69;nan;51588.94;5116640;28;20197;-82
2023/08/25 10:30:18;;;;;;;2.70;1.80;;;;;;;-145.69;nan;51592.91;5116850;28;20278;-82
2023/08/25 10:32:55;;;;;;;2.92;1.60;;;;;;;-145.69;nan;51588.94;5116785;28;20220;-82
2023/08/25 10:35:39;;;;;;;3.80;2.13;;;;;;;-145.69;nan;51600.81;5116698;28;20652;-81
2023/08/25 10:38:22;;;;;;;2.05;1.83;;;;;;;-145.69;nan;51606.75;5116821;28;20239;-81
2023/08/25 10:40:50;;;;;;;4.97;2.42;;;;;;;-145.69;nan;51640.44;5096026;28;20206;-81
2023/08/25 10:43:24;;;;;;;4.35;1.70;;;;;;;-145.69;nan;51602.81;5096327;28;20652;-82
2023/08/25 10:45:51;;;;;;;5.60;2.30;;;;;;;-145.69;nan;51584.97;5109933;28;20197;-79
2023/08/25 10:48:20;;;;;;;3.80;2.05;;;;;;;-145.69;nan;51569.16;5116781;28;20560;-80
2023/08/25 10:50:47;;;;;;;4.97;2.10;;;;;;;-145.69;nan;51598.84;5116285;28;20197;-81
2023/08/25 10:53:37;;;;;;;3.95;2.03;;;;;;;-145.69;nan;51577.06;5115952;28;20197;-81
2023/08/25 10:56:14;;;;;;;5.25;2.55;;;;;;;-145.69;nan;51577.06;5116439;28;20280;-80
2023/08/25 10:58:54;;;;;;;5.25;2.53;;;;;;;-145.69;nan;51583.00;5116137;28;20691;-80
2023/08/25 11:01:20;;;;;;;5.72;2.42;;;;;;;-145.69;nan;51620.63;5116350;28;20201;-81
2023/08/25 11:04:03;;;;;;;5.00;2.97;;;;;;;-145.69;nan;51600.81;5116113;28;20221;-81
2023/08/25 11:06:43;;;;;;;3.38;2.50;;;;;;;-145.69;nan;51608.75;5116136;28;20234;-81
2023/08/25 11:09:31;;;;;;;4.35;2.45;;;;;;;-145.69;nan;51608.75;5115888;28;20201;-81
2023/08/25 11:12:01;;;;;;;3.45;2.47;;;;;;;-145.69;nan;51596.88;5116138;28;20213;-81
2023/08/25 11:14:29;;;;;;;4.40;2.92;;;;;;;-145.69;nan;51598.84;5115834;28;20225;-83
2023/08/25 11:16:56;;;;;;;5.82;2.70;;;;;;;-145.69;nan;51608.75;5115540;28;20205;-82
2023/08/25 11:19:25;;;;;;;4.88;2.95;;;;;;;-145.69;nan;51584.97;5115634;28;20731;-81
2023/08/25 11:22:00;;;;;;;4.68;2.70;;;;;;;-145.69;nan;51579.03;5115801;28;20594;-81
2023/08/25 11:24:31;;;;;;;6.97;2.95;;;;;;;-145.69;nan;51569.16;5115959;28;20212;-80
2023/08/25 11:27:05;;;;;;;4.07;2.60;;;;;;;-145.69;nan;51553.31;5097630;28;20201;-81
2023/08/25 11:29:31;;;;;;;4.30;2.38;;;;;;;-145.69;nan;51527.56;5115845;28;20194;-81
2023/08/25 11:32:01;;;;;;;8.82;3.03;;;;;;;-145.69;nan;51565.19;5114281;28;20701;-80
2023/08/25 11:34:33;;;;;;;3.88;2.78;;;;;;;-145.69;nan;51569.16;5116016;28;20212;-79